createdAt,value
2023-02-07T00:01:14.706Z,4.77
2023-02-07T00:03:42.883Z,5.77
2023-02-07T00:06:13.260Z,5.50
2023-02-07T00:08:41.460Z,5.87
2023-02-07T00:11:10.603Z,5.77
2023-02-07T00:13:40.185Z,5.40
2023-02-07T00:16:08.681Z,5.17
2023-02-07T00:18:36.928Z,5.27
2023-02-07T00:21:06.702Z,4.70
2023-02-07T00:23:35.241Z,4.83
2023-02-07T00:26:03.696Z,4.87
2023-02-07T00:28:32.000Z,4.27
2023-02-07T00:31:06.216Z,5.07
2023-02-07T00:33:35.325Z,4.50
2023-02-07T00:36:04.396Z,5.50
2023-02-07T00:38:32.987Z,5.47
2023-02-07T00:41:01.984Z,5.93
2023-02-07T00:43:31.210Z,6.20
2023-02-07T00:46:00.391Z,5.70
2023-02-07T00:48:30.269Z,6.20
2023-02-07T00:50:58.898Z,5.33
2023-02-07T00:53:27.427Z,5.73
2023-02-07T00:55:55.608Z,5.70
2023-02-07T00:58:23.781Z,6.17
2023-02-07T01:00:52.046Z,5.77
2023-02-07T01:03:20.281Z,5.70
2023-02-07T01:05:49.911Z,5.63
2023-02-07T01:08:18.157Z,5.57
2023-02-07T01:10:46.522Z,5.60
2023-02-07T01:13:15.014Z,5.33
2023-02-07T01:15:45.407Z,5.93
2023-02-07T01:18:14.016Z,5.33
2023-02-07T01:20:42.207Z,5.40
2023-02-07T01:23:11.796Z,6.07
2023-02-07T01:25:40.227Z,5.23
2023-02-07T01:28:08.665Z,6.07
2023-02-07T01:30:37.316Z,7.73
2023-02-07T01:33:05.530Z,8.10
2023-02-07T01:35:33.746Z,6.70
2023-02-07T01:38:02.808Z,7.07
2023-02-07T01:40:32.533Z,7.57
2023-02-07T01:43:00.757Z,9.47
2023-02-07T01:45:31.377Z,9.57
2023-02-07T01:48:05.036Z,10.80
2023-02-07T01:50:33.293Z,10.47
2023-02-07T01:53:02.151Z,10.43
2023-02-07T01:55:32.896Z,10.73
2023-02-07T01:58:01.068Z,11.67
2023-02-07T02:00:29.647Z,12.70
2023-02-07T02:02:57.899Z,13.10
2023-02-07T02:05:26.185Z,11.63
2023-02-07T02:07:54.491Z,11.93
2023-02-07T02:10:24.028Z,11.60
2023-02-07T02:13:15.373Z,10.67
2023-02-07T02:15:45.973Z,11.03
2023-02-07T02:18:27.133Z,12.07
2023-02-07T02:21:22.311Z,10.37
2023-02-07T02:24:01.676Z,10.17
2023-02-07T02:26:59.981Z,10.10
2023-02-07T02:29:49.625Z,10.13
2023-02-07T02:32:53.080Z,10.07
2023-02-07T02:35:23.716Z,9.93
2023-02-07T02:37:55.243Z,9.50
2023-02-07T02:40:29.131Z,9.13
2023-02-07T02:43:01.598Z,9.70
2023-02-07T02:45:31.702Z,10.03
2023-02-07T02:47:59.910Z,8.27
2023-02-07T02:50:30.527Z,9.40
2023-02-07T02:52:59.094Z,10.07
2023-02-07T02:56:04.329Z,8.67
2023-02-07T02:58:38.686Z,9.60
2023-02-07T03:01:10.273Z,8.67
2023-02-07T03:03:49.351Z,8.77
2023-02-07T03:06:24.416Z,8.60
2023-02-07T03:08:55.435Z,9.13
2023-02-07T03:11:24.090Z,9.53
2023-02-07T03:13:59.706Z,8.00
2023-02-07T03:16:30.708Z,8.20
2023-02-07T03:19:03.209Z,8.00
2023-02-07T03:21:35.096Z,8.63
2023-02-07T03:24:04.562Z,8.23
2023-02-07T03:26:35.969Z,8.87
2023-02-07T03:29:05.716Z,8.37
2023-02-07T03:31:34.003Z,8.47
2023-02-07T03:34:05.729Z,8.03
2023-02-07T03:36:37.125Z,7.53
2023-02-07T03:39:05.328Z,7.27
2023-02-07T03:41:36.422Z,6.70
2023-02-07T03:44:07.181Z,7.43
2023-02-07T03:46:36.984Z,6.90
2023-02-07T03:49:05.697Z,7.50
2023-02-07T03:51:35.289Z,6.40
2023-02-07T03:54:03.602Z,7.13
2023-02-07T03:56:31.785Z,6.53
2023-02-07T03:58:59.964Z,5.10
2023-02-07T04:01:28.312Z,4.70
2023-02-07T04:03:56.790Z,4.63
2023-02-07T04:06:25.015Z,5.00
2023-02-07T04:08:54.594Z,4.57
2023-02-07T04:11:22.787Z,3.67
2023-02-07T04:13:50.985Z,4.43
2023-02-07T04:16:19.455Z,4.70
2023-02-07T04:18:47.656Z,4.80
2023-02-07T04:21:15.828Z,5.70
2023-02-07T04:23:44.032Z,6.37
2023-02-07T04:26:13.605Z,6.73
2023-02-07T04:28:42.139Z,6.43
2023-02-07T04:31:10.321Z,6.60
2023-02-07T04:33:38.746Z,6.23
2023-02-07T04:36:07.753Z,5.80
2023-02-07T04:38:35.978Z,6.27
2023-02-07T04:41:05.445Z,5.27
2023-02-07T04:43:36.082Z,5.07
2023-02-07T04:46:04.381Z,4.87
2023-02-07T04:48:32.606Z,5.00
2023-02-07T04:51:00.811Z,4.47
2023-02-07T04:53:29.006Z,4.37
2023-02-07T04:55:57.159Z,4.47
2023-02-07T04:58:25.666Z,4.70
2023-02-07T05:00:55.476Z,4.77
2023-02-07T05:03:23.685Z,5.23
2023-02-07T05:05:53.882Z,6.13
2023-02-07T05:08:22.879Z,6.70
2023-02-07T05:10:53.808Z,8.20
2023-02-07T05:13:22.186Z,8.57
2023-02-07T05:15:50.425Z,8.97
2023-02-07T05:18:20.909Z,9.17
2023-02-07T05:20:51.976Z,9.67
2023-02-07T05:23:20.854Z,11.00
2023-02-07T05:25:49.314Z,10.60
2023-02-07T05:28:17.588Z,10.60
2023-02-07T05:30:45.968Z,7.80
2023-02-07T05:33:13.149Z,7.60
2023-02-07T05:35:44.716Z,9.07
2023-02-07T05:38:13.602Z,7.70
2023-02-07T05:40:42.481Z,7.53
2023-02-07T05:43:10.708Z,5.77
2023-02-07T05:45:39.199Z,5.63
2023-02-07T05:48:07.663Z,5.57
2023-02-07T05:50:35.951Z,6.00
2023-02-07T05:53:08.225Z,5.70
2023-02-07T05:55:37.009Z,4.67
2023-02-07T05:58:05.421Z,6.27
2023-02-07T06:00:33.637Z,6.30
2023-02-07T06:03:02.207Z,5.77
2023-02-07T06:05:32.118Z,5.27
2023-02-07T06:08:00.499Z,5.10
2023-02-07T06:10:30.116Z,5.10
2023-02-07T06:12:58.341Z,6.97
2023-02-07T06:15:26.506Z,7.23
2023-02-07T06:17:55.017Z,9.53
2023-02-07T06:20:23.436Z,7.60
2023-02-07T06:22:52.466Z,8.13
2023-02-07T06:25:21.495Z,9.43
2023-02-07T06:27:51.346Z,9.70
2023-02-07T06:30:20.169Z,9.70
2023-02-07T06:32:48.431Z,9.20
2023-02-07T06:35:16.728Z,9.60
2023-02-07T06:37:44.904Z,7.87
2023-02-07T06:40:13.228Z,6.97
2023-02-07T06:42:41.398Z,7.67
2023-02-07T06:45:11.722Z,6.70
2023-02-07T06:47:39.873Z,5.17
2023-02-07T06:50:09.219Z,5.53
2023-02-07T06:52:37.498Z,6.07
2023-02-07T06:55:05.890Z,5.30
2023-02-07T06:57:34.350Z,5.70
2023-02-07T07:00:02.573Z,5.27
2023-02-07T07:02:32.209Z,6.03
2023-02-07T07:05:00.428Z,8.07
2023-02-07T07:07:28.665Z,8.07
2023-02-07T07:09:56.826Z,7.33
2023-02-07T07:12:25.496Z,6.90
2023-02-07T07:14:53.662Z,7.87
2023-02-07T07:17:21.881Z,6.87
2023-02-07T07:19:51.602Z,7.50
2023-02-07T07:22:21.181Z,7.00
2023-02-07T07:24:50.318Z,6.20
2023-02-07T07:27:18.736Z,6.90
2023-02-07T07:29:47.202Z,6.80
2023-02-07T07:32:32.083Z,6.90
2023-02-07T07:35:03.130Z,7.27
2023-02-07T07:37:31.355Z,7.40
2023-02-07T07:39:59.908Z,8.53
2023-02-07T07:42:28.099Z,8.80
2023-02-07T07:45:14.602Z,7.77
2023-02-07T07:47:42.792Z,8.73
2023-02-07T07:50:12.405Z,9.60
2023-02-07T07:52:40.559Z,9.40
2023-02-07T07:55:09.658Z,9.97
2023-02-07T07:57:37.948Z,8.57
2023-02-07T08:00:06.881Z,9.03
2023-02-07T08:02:41.222Z,9.73
2023-02-07T08:05:11.935Z,8.47
2023-02-07T08:07:43.157Z,10.00
2023-02-07T08:10:11.487Z,9.60
2023-02-07T08:12:39.695Z,9.80
2023-02-07T08:15:09.767Z,11.33
2023-02-07T08:17:38.292Z,10.43
2023-02-07T08:20:07.192Z,11.77
2023-02-07T08:22:36.745Z,12.70
2023-02-07T08:25:07.302Z,12.70
2023-02-07T08:27:35.559Z,10.60
2023-02-07T08:30:03.728Z,7.80
2023-02-07T08:32:31.969Z,8.70
2023-02-07T08:35:00.385Z,9.10
2023-02-07T08:37:28.600Z,7.80
2023-02-07T08:39:58.136Z,6.97
2023-02-07T08:42:27.845Z,7.57
2023-02-07T08:44:56.921Z,9.93
2023-02-07T08:47:25.405Z,10.20
2023-02-07T08:49:53.895Z,10.00
2023-02-07T08:52:22.132Z,9.47
2023-02-07T08:54:50.329Z,10.13
2023-02-07T08:57:23.101Z,10.53
2023-02-07T08:59:52.721Z,11.03
2023-02-07T09:02:21.307Z,11.47
2023-02-07T09:04:49.533Z,10.87
2023-02-07T09:07:17.684Z,9.67
2023-02-07T09:09:45.860Z,11.23
2023-02-07T09:12:14.141Z,10.03
2023-02-07T09:14:42.328Z,10.17
2023-02-07T09:17:12.214Z,9.63
2023-02-07T09:19:40.447Z,10.27
2023-02-07T09:22:08.666Z,11.00
2023-02-07T09:24:37.005Z,12.27
2023-02-07T09:27:05.247Z,10.67
2023-02-07T09:29:33.453Z,9.87
2023-02-07T09:32:01.974Z,11.87
2023-02-07T09:34:33.541Z,12.17
2023-02-07T09:37:01.797Z,11.57
2023-02-07T09:39:32.008Z,10.83
2023-02-07T09:42:06.276Z,10.73
2023-02-07T09:44:42.772Z,9.13
2023-02-07T09:47:11.887Z,8.57
2023-02-07T09:49:43.546Z,8.23
2023-02-07T09:52:13.481Z,8.60
2023-02-07T09:54:43.788Z,7.63
2023-02-07T09:57:15.839Z,7.40
2023-02-07T09:59:48.787Z,7.27
2023-02-07T10:02:19.626Z,6.87
2023-02-07T10:04:49.829Z,6.30
2023-02-07T10:07:18.283Z,5.83
2023-02-07T10:09:46.662Z,6.60
2023-02-07T10:12:39.770Z,6.50
2023-02-07T10:15:17.840Z,6.97
2023-02-07T10:17:54.874Z,6.23
2023-02-07T10:20:35.339Z,8.33
2023-02-07T10:23:13.814Z,7.27
2023-02-07T10:25:45.731Z,6.23
2023-02-07T10:28:44.851Z,6.63
2023-02-07T10:31:16.443Z,6.83
2023-02-07T10:33:51.120Z,6.97
2023-02-07T10:36:20.781Z,6.87
2023-02-07T10:39:07.816Z,6.37
2023-02-07T10:41:38.475Z,5.93
2023-02-07T10:44:07.231Z,5.33
2023-02-07T10:46:35.587Z,5.70
2023-02-07T10:49:03.796Z,5.80
2023-02-07T10:51:35.399Z,6.43
2023-02-07T10:54:07.720Z,6.53
2023-02-07T10:56:41.930Z,5.90
2023-02-07T10:59:34.122Z,5.90
2023-02-07T11:02:02.594Z,7.20
2023-02-07T11:04:37.244Z,6.73
2023-02-07T11:07:07.525Z,6.90
2023-02-07T11:09:37.962Z,7.47
2023-02-07T11:12:16.401Z,7.87
2023-02-07T11:15:00.032Z,6.83
2023-02-07T11:17:28.286Z,7.20
2023-02-07T11:19:56.610Z,6.70
2023-02-07T11:22:26.475Z,6.63
2023-02-07T11:24:55.052Z,6.40
2023-02-07T11:27:23.375Z,6.93
2023-02-07T11:29:53.444Z,7.53
2023-02-07T11:32:23.547Z,7.80
2023-02-07T11:34:53.394Z,6.97
2023-02-07T11:37:24.745Z,7.80
2023-02-07T11:39:55.312Z,7.33
2023-02-07T11:42:24.212Z,7.23
2023-02-07T11:44:52.604Z,7.67
2023-02-07T11:47:22.376Z,7.93
2023-02-07T11:49:52.920Z,8.67
2023-02-07T11:52:21.924Z,7.53
2023-02-07T11:54:52.740Z,7.87
2023-02-07T11:57:24.464Z,7.73
2023-02-07T12:00:01.643Z,7.57
2023-02-07T12:02:30.336Z,7.37
2023-02-07T12:05:18.359Z,8.40
2023-02-07T12:07:49.561Z,7.87
2023-02-07T12:10:23.029Z,8.63
2023-02-07T12:12:54.609Z,7.40
2023-02-07T12:15:23.773Z,6.07
2023-02-07T12:17:58.092Z,6.00
2023-02-07T12:20:27.552Z,6.17
2023-02-07T12:23:11.640Z,5.90
2023-02-07T12:25:49.317Z,6.00
2023-02-07T12:28:21.257Z,5.87
2023-02-07T12:30:51.236Z,5.93
2023-02-07T12:33:22.978Z,5.87
2023-02-07T12:35:59.062Z,5.47
2023-02-07T12:38:28.856Z,5.60
2023-02-07T12:41:00.334Z,5.53
2023-02-07T12:43:31.418Z,6.67
2023-02-07T12:46:08.762Z,6.03
2023-02-07T12:48:47.885Z,5.57
2023-02-07T12:51:21.309Z,6.10
2023-02-07T12:53:56.941Z,6.97
2023-02-07T12:56:32.686Z,6.13
2023-02-07T12:59:04.250Z,8.50
2023-02-07T13:01:36.078Z,8.87
2023-02-07T13:04:43.232Z,9.90
2023-02-07T13:07:18.629Z,9.87
2023-02-07T13:09:49.799Z,10.00
2023-02-07T13:12:19.527Z,9.03
2023-02-07T13:15:00.027Z,9.53
2023-02-07T13:17:39.759Z,10.50
2023-02-07T13:20:17.216Z,10.03
2023-02-07T13:22:47.660Z,9.30
2023-02-07T13:25:17.538Z,10.80
2023-02-07T13:27:45.912Z,9.90
2023-02-07T13:30:16.613Z,9.90
2023-02-07T13:32:45.032Z,9.50
2023-02-07T13:35:14.957Z,9.03
2023-02-07T13:37:46.532Z,9.83
2023-02-07T13:40:23.092Z,9.17
2023-02-07T13:42:53.102Z,9.87
2023-02-07T13:45:24.895Z,9.27
2023-02-07T13:47:59.361Z,8.90
2023-02-07T13:50:40.950Z,9.70
2023-02-07T13:53:19.275Z,9.43
2023-02-07T13:55:48.272Z,10.63
2023-02-07T13:59:11.224Z,9.70
2023-02-07T14:01:48.226Z,11.20
2023-02-07T14:04:16.482Z,10.80
2023-02-07T14:06:45.579Z,9.90
2023-02-07T14:09:18.322Z,9.87
2023-02-07T14:11:47.451Z,9.47
2023-02-07T14:14:25.990Z,10.80
2023-02-07T14:16:56.474Z,10.47
2023-02-07T14:19:52.788Z,10.20
2023-02-07T14:22:28.005Z,9.80
2023-02-07T14:25:22.158Z,11.07
2023-02-07T14:28:08.677Z,10.13
2023-02-07T14:30:38.655Z,10.30
2023-02-07T14:33:17.987Z,10.90
2023-02-07T14:36:02.514Z,10.17
2023-02-07T14:38:33.161Z,9.43
2023-02-07T14:41:10.728Z,9.80
2023-02-07T14:43:56.982Z,9.13
2023-02-07T14:46:31.183Z,9.63
2023-02-07T14:49:02.893Z,9.60
2023-02-07T14:51:33.625Z,9.97
2023-02-07T14:54:04.267Z,9.90
2023-02-07T14:56:45.947Z,10.10
2023-02-07T14:59:16.211Z,11.33
2023-02-07T15:01:44.656Z,10.60
2023-02-07T15:04:14.371Z,11.03
2023-02-07T15:06:43.800Z,11.93
2023-02-07T15:09:23.665Z,10.83
2023-02-07T15:11:59.769Z,11.53
2023-02-07T15:14:33.802Z,12.10
2023-02-07T15:17:02.309Z,11.67
2023-02-07T15:19:35.078Z,11.57
2023-02-07T15:22:03.638Z,11.93
2023-02-07T15:24:39.843Z,13.00
2023-02-07T15:27:21.166Z,13.60
2023-02-07T15:29:55.550Z,13.03
2023-02-07T15:32:23.983Z,13.63
2023-02-07T15:34:55.932Z,12.50
2023-02-07T15:37:26.075Z,13.53
2023-02-07T15:39:54.477Z,14.57
2023-02-07T15:42:22.978Z,15.60
2023-02-07T15:44:53.300Z,15.17
2023-02-07T15:47:39.417Z,16.03
2023-02-07T15:50:21.242Z,17.00
2023-02-07T15:52:51.324Z,16.10
2023-02-07T15:55:22.372Z,15.13
2023-02-07T15:57:51.519Z,14.93
2023-02-07T16:00:22.218Z,13.23
2023-02-07T16:02:56.564Z,12.80
2023-02-07T16:05:28.173Z,13.70
2023-02-07T16:07:56.518Z,12.03
2023-02-07T16:10:36.445Z,12.17
2023-02-07T16:13:04.765Z,12.73
2023-02-07T16:15:33.937Z,14.10
2023-02-07T16:18:02.365Z,13.10
2023-02-07T16:20:32.505Z,13.50
2023-02-07T16:23:01.998Z,13.77
2023-02-07T16:25:32.231Z,13.20
2023-02-07T16:28:00.467Z,13.20
2023-02-07T16:30:31.281Z,13.93
2023-02-07T16:32:59.502Z,14.63
2023-02-07T16:35:28.307Z,13.50
2023-02-07T16:37:57.894Z,13.50
2023-02-07T16:40:26.705Z,13.97
2023-02-07T16:42:54.971Z,16.53
2023-02-07T16:45:27.040Z,15.17
2023-02-07T16:47:55.357Z,15.03
2023-02-07T16:50:24.233Z,14.57
2023-02-07T16:52:53.075Z,16.83
2023-02-07T16:55:22.969Z,16.10
2023-02-07T16:57:51.172Z,15.60
2023-02-07T17:00:22.348Z,14.63
2023-02-07T17:02:50.564Z,15.13
2023-02-07T17:05:18.865Z,15.23
2023-02-07T17:07:47.401Z,14.03
2023-02-07T17:10:20.177Z,13.57
2023-02-07T17:12:49.783Z,13.90
2023-02-07T17:15:18.095Z,12.13
2023-02-07T17:17:46.265Z,13.20
2023-02-07T17:20:23.091Z,12.80
2023-02-07T17:22:51.491Z,13.73
2023-02-07T17:25:19.950Z,13.50
2023-02-07T17:27:49.544Z,13.60
2023-02-07T17:30:18.917Z,15.00
2023-02-07T17:32:47.132Z,15.30
2023-02-07T17:35:15.299Z,15.27
2023-02-07T17:37:43.549Z,21.00
2023-02-07T17:40:29.902Z,16.50
2023-02-07T17:42:59.430Z,11.20
2023-02-07T17:45:28.302Z,11.57
2023-02-07T17:47:57.604Z,11.07
2023-02-07T17:50:26.851Z,12.10
2023-02-07T17:52:55.017Z,12.77
2023-02-07T17:55:23.199Z,12.47
2023-02-07T17:57:51.440Z,12.00
2023-02-07T18:00:23.669Z,11.77
2023-02-07T18:02:52.117Z,12.40
2023-02-07T18:05:20.538Z,13.97
2023-02-07T18:07:48.962Z,13.33
2023-02-07T18:10:18.620Z,14.97
2023-02-07T18:12:46.889Z,16.87
2023-02-07T18:15:15.429Z,25.00
2023-02-07T18:17:47.332Z,25.20
2023-02-07T18:20:16.475Z,23.50
2023-02-07T18:22:44.620Z,23.30
2023-02-07T18:25:12.838Z,22.83
2023-02-07T18:27:41.034Z,23.37
2023-02-07T18:30:10.603Z,23.37
2023-02-07T18:32:39.101Z,23.73
2023-02-07T18:35:09.112Z,24.37
2023-02-07T18:37:37.455Z,23.37
2023-02-07T18:40:06.430Z,23.07
2023-02-07T18:42:34.888Z,22.53
2023-02-07T18:45:03.303Z,23.33
2023-02-07T18:47:32.691Z,22.70
2023-02-07T18:50:00.998Z,21.13
2023-02-07T18:52:30.817Z,20.93
2023-02-07T18:54:58.988Z,20.73
2023-02-07T18:57:27.470Z,20.80
2023-02-07T18:59:55.640Z,20.80
2023-02-07T19:02:23.811Z,19.03
2023-02-07T19:04:52.126Z,16.63
2023-02-07T19:07:20.274Z,18.20
2023-02-07T19:09:50.149Z,18.47
2023-02-07T19:12:18.324Z,21.30
2023-02-07T19:14:46.477Z,22.60
2023-02-07T19:17:16.111Z,23.67
2023-02-07T19:19:44.589Z,26.23
2023-02-07T19:22:13.079Z,28.60
2023-02-07T19:24:42.164Z,31.03
2023-02-07T19:27:11.796Z,30.37
2023-02-07T19:29:39.979Z,27.70
2023-02-07T19:32:09.355Z,28.83
2023-02-07T19:34:38.304Z,29.17
2023-02-07T19:37:06.849Z,29.13
2023-02-07T19:39:35.158Z,30.67
2023-02-07T19:42:03.311Z,30.90
2023-02-07T19:44:33.783Z,33.00
2023-02-07T19:47:02.140Z,33.10
2023-02-07T19:49:31.526Z,33.43
2023-02-07T19:52:00.052Z,35.00
2023-02-07T19:54:28.298Z,33.17
2023-02-07T19:56:56.538Z,32.30
2023-02-07T19:59:24.681Z,28.30
2023-02-07T20:01:54.277Z,26.33
2023-02-07T20:04:22.787Z,28.83
2023-02-07T20:06:50.960Z,25.80
2023-02-07T20:09:19.165Z,23.33
2023-02-07T20:11:47.397Z,22.83
2023-02-07T20:14:15.573Z,21.33
2023-02-07T20:16:44.121Z,25.50
2023-02-07T20:19:13.715Z,27.23
2023-02-07T20:21:41.908Z,27.37
2023-02-07T20:24:10.321Z,22.40
2023-02-07T20:26:40.161Z,22.83
2023-02-07T20:29:12.850Z,23.70
2023-02-07T20:31:41.459Z,22.50
2023-02-07T20:34:10.179Z,23.10
2023-02-07T20:36:43.829Z,24.03
2023-02-07T20:39:13.664Z,24.17
2023-02-07T20:41:43.298Z,24.00
2023-02-07T20:44:13.595Z,24.00
2023-02-07T20:46:42.214Z,20.70
2023-02-07T20:49:14.569Z,19.57
2023-02-07T20:51:44.652Z,19.40
2023-02-07T20:54:13.161Z,20.27
2023-02-07T20:56:41.340Z,20.47
2023-02-07T20:59:10.021Z,21.80
2023-02-07T21:01:38.208Z,19.73
2023-02-07T21:04:06.765Z,18.80
2023-02-07T21:06:35.224Z,18.77
2023-02-07T21:09:05.721Z,17.70
2023-02-07T21:11:34.993Z,16.53
2023-02-07T21:14:03.314Z,17.90
2023-02-07T21:16:31.745Z,15.70
2023-02-07T21:19:00.019Z,16.63
2023-02-07T21:21:29.008Z,15.47
2023-02-07T21:23:57.596Z,15.83
2023-02-07T21:26:27.797Z,14.93
2023-02-07T21:28:58.506Z,15.10
2023-02-07T21:31:26.806Z,13.87
2023-02-07T21:33:55.030Z,14.03
2023-02-07T21:36:24.718Z,12.30
2023-02-07T21:38:53.926Z,12.53
2023-02-07T21:41:23.317Z,12.17
2023-02-07T21:43:52.991Z,11.90
2023-02-07T21:46:22.991Z,11.80
2023-02-07T21:48:53.305Z,12.43
2023-02-07T21:51:22.941Z,12.13
2023-02-07T21:53:51.248Z,11.93
2023-02-07T21:56:20.623Z,11.70
2023-02-07T21:58:49.064Z,12.83
2023-02-07T22:01:19.370Z,12.00
2023-02-07T22:03:48.588Z,10.93
2023-02-07T22:06:17.273Z,11.57
2023-02-07T22:08:47.544Z,12.00
2023-02-07T22:11:17.445Z,10.67
2023-02-07T22:13:46.099Z,11.17
2023-02-07T22:16:15.427Z,8.83
2023-02-07T22:18:45.104Z,9.73
2023-02-07T22:21:16.611Z,9.70
2023-02-07T22:23:44.878Z,10.60
2023-02-07T22:26:13.008Z,10.30
2023-02-07T22:28:41.672Z,11.63
2023-02-07T22:31:10.639Z,10.73
2023-02-07T22:33:39.265Z,11.57
2023-02-07T22:36:12.773Z,10.30
2023-02-07T22:38:40.972Z,11.73
2023-02-07T22:41:09.374Z,11.50
2023-02-07T22:43:37.604Z,11.10
2023-02-07T22:46:06.190Z,12.17
2023-02-07T22:48:34.824Z,10.43
2023-02-07T22:51:13.269Z,10.83
2023-02-07T22:53:41.467Z,11.27
2023-02-07T22:56:09.795Z,11.33
2023-02-07T22:58:38.098Z,10.50
2023-02-07T23:01:06.798Z,10.77
2023-02-07T23:03:35.220Z,11.57
2023-02-07T23:06:04.945Z,11.13
2023-02-07T23:08:34.517Z,11.37
2023-02-07T23:11:02.658Z,9.67
2023-02-07T23:13:30.833Z,10.43
2023-02-07T23:15:59.335Z,10.73
2023-02-07T23:18:27.517Z,10.37
2023-02-07T23:20:55.697Z,10.37
2023-02-07T23:23:23.915Z,10.37
2023-02-07T23:25:53.465Z,9.40
2023-02-07T23:28:21.601Z,9.90
2023-02-07T23:30:50.126Z,10.57
2023-02-07T23:33:18.345Z,9.00
2023-02-07T23:35:46.492Z,9.20
2023-02-07T23:38:14.629Z,8.87
2023-02-07T23:40:42.809Z,10.30
2023-02-07T23:43:12.646Z,9.20
2023-02-07T23:45:40.846Z,8.73
2023-02-07T23:48:09.052Z,8.93
2023-02-07T23:50:37.299Z,8.57
2023-02-07T23:53:05.568Z,8.50
2023-02-07T23:55:33.745Z,8.57
2023-02-07T23:58:02.504Z,8.73
